createdAt,value
2018-11-10T01:29:47.392Z,7.85
2018-11-10T01:29:47.964Z,7.84
2018-11-10T01:29:48.563Z,7.87
2018-11-10T01:29:49.164Z,7.85
2018-11-10T01:29:49.763Z,7.89
2018-11-10T01:29:50.361Z,7.85
2018-11-10T01:29:50.962Z,7.92
2018-11-10T01:29:51.563Z,7.89
2018-11-10T01:30:45.019Z,7.79
2018-11-10T01:30:45.617Z,7.82
2018-11-10T01:30:46.216Z,7.87
2018-11-10T01:30:46.818Z,7.77
2018-11-10T01:30:47.416Z,7.84
2018-11-10T01:30:48.015Z,7.82
2018-11-10T01:30:48.615Z,7.92
2018-11-10T01:30:49.216Z,7.82
2018-11-10T01:31:43.695Z,7.78
2018-11-10T01:31:44.292Z,7.79
2018-11-10T01:31:44.890Z,7.82
2018-11-10T01:31:45.490Z,7.79
2018-11-10T01:31:46.095Z,7.75
2018-11-10T01:31:46.690Z,7.78
2018-11-10T01:31:47.288Z,7.77
2018-11-10T01:31:47.891Z,7.78
2018-11-10T01:32:41.353Z,7.77
2018-11-10T01:32:41.944Z,7.72
2018-11-10T01:32:42.544Z,7.79
2018-11-10T01:32:43.146Z,7.77
2018-11-10T01:32:43.744Z,7.79
2018-11-10T01:32:44.344Z,7.74
2018-11-10T01:32:44.944Z,7.75
2018-11-10T01:32:45.549Z,7.77
2018-11-10T01:33:40.060Z,7.71
2018-11-10T01:33:40.620Z,7.79
2018-11-10T01:33:41.220Z,7.71
2018-11-10T01:33:41.819Z,7.69
2018-11-10T01:33:42.419Z,7.74
2018-11-10T01:33:43.020Z,7.77
2018-11-10T01:33:43.619Z,7.78
2018-11-10T01:33:44.219Z,7.71
2018-11-10T01:34:38.699Z,7.62
2018-11-10T01:34:39.296Z,7.62
2018-11-10T01:34:39.896Z,7.67
2018-11-10T01:34:40.495Z,7.66
2018-11-10T01:34:41.094Z,7.69
2018-11-10T01:34:41.694Z,7.69
2018-11-10T01:34:42.296Z,7.71
2018-11-10T01:34:42.895Z,7.75
2018-11-10T01:35:37.383Z,7.77
2018-11-10T01:35:37.974Z,7.60
2018-11-10T01:35:38.572Z,7.66
2018-11-10T01:35:39.171Z,7.67
2018-11-10T01:35:39.773Z,7.75
2018-11-10T01:35:40.381Z,7.75
2018-11-10T01:35:40.991Z,7.63
2018-11-10T01:35:41.584Z,7.69
2018-11-10T01:36:36.051Z,7.74
2018-11-10T01:36:36.648Z,7.77
2018-11-10T01:36:37.248Z,7.69
2018-11-10T01:36:37.849Z,7.71
2018-11-10T01:36:38.448Z,7.72
2018-11-10T01:36:39.047Z,7.69
2018-11-10T01:36:39.648Z,7.75
2018-11-10T01:36:40.247Z,7.75
2018-11-10T01:37:33.704Z,7.75
2018-11-10T01:37:34.300Z,7.72
2018-11-10T01:37:34.902Z,7.72
2018-11-10T01:37:35.500Z,7.72
2018-11-10T01:37:36.104Z,7.77
2018-11-10T01:37:36.701Z,7.75
2018-11-10T01:37:37.300Z,7.71
2018-11-10T01:37:37.900Z,7.72
2018-11-10T01:38:32.380Z,7.74
2018-11-10T01:38:32.975Z,7.78
2018-11-10T01:38:33.576Z,7.72
2018-11-10T01:38:34.174Z,7.75
2018-11-10T01:38:34.776Z,7.69
2018-11-10T01:38:35.375Z,7.72
2018-11-10T01:38:35.974Z,7.72
2018-11-10T01:38:36.579Z,7.69
2018-11-10T01:39:31.079Z,7.72
2018-11-10T01:39:31.652Z,7.75
2018-11-10T01:39:32.254Z,7.77
2018-11-10T01:39:32.851Z,7.63
2018-11-10T01:39:33.452Z,7.77
2018-11-10T01:39:34.050Z,7.77
2018-11-10T01:39:34.651Z,7.69
2018-11-10T01:39:35.249Z,7.74
2018-11-10T01:40:28.709Z,7.74
2018-11-10T01:40:29.305Z,7.69
2018-11-10T01:40:29.904Z,7.71
2018-11-10T01:40:30.503Z,7.74
2018-11-10T01:40:31.108Z,7.71
2018-11-10T01:40:31.705Z,7.77
2018-11-10T01:40:32.302Z,7.71
2018-11-10T01:40:32.904Z,7.69
2018-11-10T01:41:27.384Z,7.79
2018-11-10T01:41:27.979Z,7.77
2018-11-10T01:41:28.579Z,7.77
2018-11-10T01:41:29.179Z,7.75
2018-11-10T01:41:29.781Z,7.74
2018-11-10T01:41:30.378Z,7.74
2018-11-10T01:41:30.979Z,7.72
2018-11-10T01:41:31.582Z,7.78
2018-11-10T01:42:26.056Z,7.82
2018-11-10T01:42:26.656Z,7.79
2018-11-10T01:42:27.256Z,7.81
2018-11-10T01:42:27.855Z,7.81
2018-11-10T01:42:28.455Z,7.92
2018-11-10T01:42:29.055Z,7.85
2018-11-10T01:42:29.654Z,7.81
2018-11-10T01:42:30.257Z,7.84
2018-11-10T01:43:23.716Z,7.79
2018-11-10T01:43:24.308Z,7.92
2018-11-10T01:43:24.911Z,7.81
2018-11-10T01:43:25.506Z,7.84
2018-11-10T01:43:26.109Z,7.82
2018-11-10T01:43:26.706Z,7.87
2018-11-10T01:43:27.307Z,7.92
2018-11-10T01:43:27.906Z,7.85
2018-11-10T01:44:21.388Z,7.81
2018-11-10T01:44:21.960Z,7.79
2018-11-10T01:44:22.560Z,7.89
2018-11-10T01:44:23.159Z,7.89
2018-11-10T01:44:23.759Z,7.84
2018-11-10T01:44:24.362Z,7.89
2018-11-10T01:44:24.960Z,7.82
2018-11-10T01:44:25.559Z,7.81
2018-11-10T01:45:20.038Z,7.82
2018-11-10T01:45:20.635Z,7.90
2018-11-10T01:45:21.235Z,7.84
2018-11-10T01:45:21.836Z,7.82
2018-11-10T01:45:22.434Z,7.85
2018-11-10T01:45:23.034Z,7.85
2018-11-10T01:45:23.635Z,7.82
2018-11-10T01:45:24.234Z,7.85
2018-11-10T01:46:17.690Z,7.87
2018-11-10T01:46:18.289Z,7.84
2018-11-10T01:46:18.886Z,7.89
2018-11-10T01:46:19.488Z,7.84
2018-11-10T01:46:20.088Z,7.87
2018-11-10T01:46:20.686Z,7.89
2018-11-10T01:46:21.288Z,7.85
2018-11-10T01:46:21.888Z,7.85
2018-11-10T01:47:15.341Z,7.85
2018-11-10T01:47:15.939Z,7.93
2018-11-10T01:47:16.539Z,7.85
2018-11-10T01:47:17.138Z,7.89
2018-11-10T01:47:17.739Z,7.84
2018-11-10T01:47:18.340Z,7.93
2018-11-10T01:47:18.939Z,7.84
2018-11-10T01:47:19.538Z,7.87
2018-11-10T01:48:14.018Z,7.87
2018-11-10T01:48:14.616Z,7.87
2018-11-10T01:48:15.215Z,7.84
2018-11-10T01:48:15.813Z,7.85
2018-11-10T01:48:16.413Z,7.84
2018-11-10T01:48:17.013Z,7.87
2018-11-10T01:48:17.613Z,7.85
2018-11-10T01:48:18.212Z,7.93
2018-11-10T01:49:11.701Z,7.87
2018-11-10T01:49:12.266Z,7.85
2018-11-10T01:49:12.866Z,7.85
2018-11-10T01:49:13.466Z,7.89
2018-11-10T01:49:14.067Z,7.87
2018-11-10T01:49:14.667Z,7.90
2018-11-10T01:49:15.265Z,7.89
2018-11-10T01:49:15.865Z,7.89
2018-11-10T01:50:09.322Z,7.87
2018-11-10T01:50:09.918Z,7.89
2018-11-10T01:50:10.518Z,7.85
2018-11-10T01:50:11.122Z,7.84
2018-11-10T01:50:11.721Z,7.89
2018-11-10T01:50:12.319Z,7.90
2018-11-10T01:50:12.921Z,7.90
2018-11-10T01:50:13.517Z,7.89
2018-11-10T01:51:06.971Z,7.92
2018-11-10T01:51:07.569Z,7.90
2018-11-10T01:51:08.170Z,7.92
2018-11-10T01:51:08.770Z,7.89
2018-11-10T01:51:09.369Z,7.87
2018-11-10T01:51:09.970Z,7.89
2018-11-10T01:51:10.570Z,7.89
2018-11-10T01:51:11.168Z,7.90
2018-11-10T01:52:05.648Z,7.90
2018-11-10T01:52:06.248Z,7.84
2018-11-10T01:52:06.843Z,7.92
2018-11-10T01:52:07.442Z,7.94
2018-11-10T01:52:08.043Z,7.90
2018-11-10T01:52:08.643Z,7.90
2018-11-10T01:52:09.242Z,7.87
2018-11-10T01:52:09.842Z,7.90
2018-11-10T01:53:04.323Z,7.89
2018-11-10T01:53:04.921Z,7.87
2018-11-10T01:53:05.521Z,7.89
2018-11-10T01:53:06.121Z,7.87
2018-11-10T01:53:06.720Z,7.87
2018-11-10T01:53:07.320Z,7.90
2018-11-10T01:53:07.921Z,7.87
2018-11-10T01:53:08.519Z,7.90
2018-11-10T01:54:01.977Z,7.87
2018-11-10T01:54:02.575Z,7.92
2018-11-10T01:54:03.174Z,7.89
2018-11-10T01:54:03.776Z,7.87
2018-11-10T01:54:04.373Z,7.89
2018-11-10T01:54:04.975Z,7.89
2018-11-10T01:54:05.572Z,7.90
2018-11-10T01:54:06.172Z,7.90
2018-11-10T01:55:00.676Z,7.93
2018-11-10T01:55:01.248Z,7.92
2018-11-10T01:55:01.856Z,7.93
2018-11-10T01:55:02.448Z,7.85
2018-11-10T01:55:03.048Z,7.87
2018-11-10T01:55:03.647Z,7.93
2018-11-10T01:55:04.249Z,7.92
2018-11-10T01:55:04.848Z,7.87
2018-11-10T01:56:11.000Z,7.87
2018-11-10T01:56:11.597Z,7.89
2018-11-10T01:56:12.198Z,7.96
2018-11-10T01:56:12.797Z,7.93
2018-11-10T01:56:13.398Z,7.96
2018-11-10T01:56:13.999Z,7.93
2018-11-10T01:56:14.597Z,7.94
2018-11-10T01:56:15.196Z,7.87
2018-11-10T01:57:08.653Z,7.87
2018-11-10T01:57:09.251Z,7.87
2018-11-10T01:57:09.855Z,7.90
2018-11-10T01:57:10.450Z,7.90
2018-11-10T01:57:11.052Z,7.96
2018-11-10T01:57:11.655Z,7.96
2018-11-10T01:57:12.248Z,7.96
2018-11-10T01:57:12.848Z,7.93
2018-11-10T01:58:06.306Z,8.03
2018-11-10T01:58:06.902Z,7.99
2018-11-10T01:58:07.501Z,8.04
2018-11-10T01:58:08.102Z,7.96
2018-11-10T01:58:08.703Z,7.99
2018-11-10T01:58:09.302Z,7.87
2018-11-10T01:58:09.901Z,7.94
2018-11-10T01:58:10.501Z,7.84
2018-11-10T01:59:04.992Z,7.89
2018-11-10T01:59:05.579Z,7.99
2018-11-10T01:59:06.177Z,7.96
2018-11-10T01:59:06.776Z,7.94
2018-11-10T01:59:07.375Z,8.02
2018-11-10T01:59:07.976Z,7.94
2018-11-10T01:59:08.577Z,7.92
2018-11-10T01:59:09.176Z,8.00
2018-11-10T02:00:03.683Z,8.00
2018-11-10T02:00:04.259Z,7.97
2018-11-10T02:00:04.853Z,7.97
2018-11-10T02:00:05.453Z,7.99
2018-11-10T02:00:06.054Z,7.96
2018-11-10T02:00:06.654Z,8.00
2018-11-10T02:00:07.252Z,7.99
2018-11-10T02:00:07.852Z,7.97
2018-11-10T02:01:02.335Z,7.93
2018-11-10T02:01:02.928Z,7.94
2018-11-10T02:01:03.530Z,8.02
2018-11-10T02:01:04.129Z,7.97
2018-11-10T02:01:04.728Z,8.02
2018-11-10T02:01:05.330Z,8.02
2018-11-10T02:01:05.929Z,7.96
2018-11-10T02:01:06.529Z,8.02
2018-11-10T02:02:01.010Z,8.07
2018-11-10T02:02:01.605Z,7.94
2018-11-10T02:02:02.204Z,8.07
2018-11-10T02:02:02.804Z,8.04
2018-11-10T02:02:03.403Z,8.03
2018-11-10T02:02:04.005Z,8.02
2018-11-10T02:02:04.603Z,7.96
2018-11-10T02:02:05.203Z,7.93
2018-11-10T02:02:59.686Z,8.08
2018-11-10T02:03:00.280Z,8.10
2018-11-10T02:03:00.879Z,7.99
2018-11-10T02:03:01.481Z,8.03
2018-11-10T02:03:02.079Z,8.07
2018-11-10T02:03:02.680Z,8.10
2018-11-10T02:03:03.280Z,8.08
2018-11-10T02:03:03.882Z,8.00
2018-11-10T02:03:58.360Z,8.11
2018-11-10T02:03:58.957Z,8.12
2018-11-10T02:03:59.556Z,8.11
2018-11-10T02:04:00.156Z,8.02
2018-11-10T02:04:00.757Z,8.07
2018-11-10T02:04:01.356Z,8.07
2018-11-10T02:04:01.957Z,8.10
2018-11-10T02:04:02.554Z,8.14
2018-11-10T02:04:57.034Z,8.08
2018-11-10T02:04:57.647Z,8.12
2018-11-10T02:04:58.236Z,8.08
2018-11-10T02:04:58.831Z,8.02
2018-11-10T02:04:59.430Z,8.08
2018-11-10T02:05:00.031Z,8.08
2018-11-10T02:05:00.630Z,8.10
2018-11-10T02:05:01.233Z,8.02
2018-11-10T02:05:55.733Z,8.07
2018-11-10T02:05:56.307Z,8.08
2018-11-10T02:05:56.906Z,7.99
2018-11-10T02:05:57.508Z,8.08
2018-11-10T02:05:58.108Z,7.99
2018-11-10T02:05:58.708Z,8.11
2018-11-10T02:05:59.306Z,8.00
2018-11-10T02:05:59.907Z,8.04
2018-11-10T02:06:53.372Z,8.02
2018-11-10T02:06:53.998Z,8.07
2018-11-10T02:06:54.560Z,7.97
2018-11-10T02:06:55.165Z,8.14
2018-11-10T02:06:55.760Z,8.00
2018-11-10T02:06:56.360Z,8.08
2018-11-10T02:06:56.958Z,7.99
2018-11-10T02:06:57.559Z,7.99
2018-11-10T02:07:52.040Z,8.03
2018-11-10T02:07:52.635Z,8.08
2018-11-10T02:07:53.234Z,8.04
2018-11-10T02:07:53.845Z,8.03
2018-11-10T02:07:54.435Z,8.07
2018-11-10T02:07:55.035Z,8.14
2018-11-10T02:07:55.633Z,8.11
2018-11-10T02:07:56.234Z,8.11
2018-11-10T02:08:49.690Z,8.08
2018-11-10T02:08:50.290Z,8.08
2018-11-10T02:08:50.886Z,8.11
2018-11-10T02:08:51.486Z,8.02
2018-11-10T02:08:52.091Z,8.04
2018-11-10T02:08:52.685Z,8.03
2018-11-10T02:08:53.285Z,8.10
2018-11-10T02:08:53.892Z,7.99
2018-11-10T02:09:48.365Z,7.97
2018-11-10T02:09:48.961Z,8.02
2018-11-10T02:09:49.562Z,7.99
2018-11-10T02:09:50.163Z,8.00
2018-11-10T02:09:50.761Z,7.99
2018-11-10T02:09:51.360Z,8.00
2018-11-10T02:09:51.962Z,7.99
2018-11-10T02:09:52.562Z,8.14
2018-11-10T02:10:46.041Z,8.14
2018-11-10T02:10:46.615Z,8.12
2018-11-10T02:10:47.214Z,8.11
2018-11-10T02:10:47.814Z,8.14
2018-11-10T02:10:48.414Z,8.12
2018-11-10T02:10:49.015Z,8.11
2018-11-10T02:10:49.615Z,8.02
2018-11-10T02:10:50.215Z,8.14
2018-11-10T02:11:43.670Z,8.12
2018-11-10T02:11:44.267Z,8.11
2018-11-10T02:11:44.865Z,8.00
2018-11-10T02:11:45.465Z,8.12
2018-11-10T02:11:46.066Z,8.11
2018-11-10T02:11:46.666Z,8.10
2018-11-10T02:11:47.267Z,8.15
2018-11-10T02:11:47.865Z,8.15
2018-11-10T02:12:42.344Z,8.12
2018-11-10T02:12:42.940Z,8.10
2018-11-10T02:12:43.541Z,8.11
2018-11-10T02:12:44.141Z,8.10
2018-11-10T02:12:44.744Z,8.14
2018-11-10T02:12:45.342Z,8.11
2018-11-10T02:12:45.940Z,8.11
2018-11-10T02:12:46.541Z,8.14
2018-11-10T02:13:39.997Z,8.02
2018-11-10T02:13:40.599Z,8.12
2018-11-10T02:13:41.192Z,8.12
2018-11-10T02:13:41.792Z,8.04
2018-11-10T02:13:42.391Z,8.11
2018-11-10T02:13:42.992Z,7.99
2018-11-10T02:13:43.592Z,8.04
2018-11-10T02:13:44.191Z,8.00
2018-11-10T02:14:37.649Z,8.14
2018-11-10T02:14:38.246Z,8.08
2018-11-10T02:14:38.848Z,8.15
2018-11-10T02:14:39.445Z,8.12
2018-11-10T02:14:40.049Z,8.11
2018-11-10T02:14:40.645Z,8.14
2018-11-10T02:14:41.245Z,8.12
2018-11-10T02:14:41.845Z,8.08
2018-11-10T02:15:35.421Z,8.11
2018-11-10T02:15:35.919Z,8.14
2018-11-10T02:15:36.519Z,8.10
2018-11-10T02:15:37.119Z,8.21
2018-11-10T02:15:37.719Z,8.20
2018-11-10T02:15:38.318Z,8.17
2018-11-10T02:15:38.919Z,8.08
2018-11-10T02:15:39.518Z,8.17
2018-11-10T02:16:33.053Z,8.10
2018-11-10T02:16:33.652Z,8.08
2018-11-10T02:16:34.255Z,8.25
2018-11-10T02:16:34.851Z,8.15
2018-11-10T02:16:35.454Z,8.15
2018-11-10T02:16:36.051Z,8.11
2018-11-10T02:16:36.650Z,8.12
2018-11-10T02:16:37.251Z,8.14
2018-11-10T02:17:31.730Z,8.08
2018-11-10T02:17:32.326Z,8.12
2018-11-10T02:17:32.925Z,8.17
2018-11-10T02:17:33.525Z,8.14
2018-11-10T02:17:34.125Z,8.07
2018-11-10T02:17:34.726Z,8.14
2018-11-10T02:17:35.324Z,8.20
2018-11-10T02:17:35.925Z,8.08
2018-11-10T02:18:29.381Z,8.22
2018-11-10T02:18:29.979Z,8.18
2018-11-10T02:18:30.581Z,8.21
2018-11-10T02:18:31.178Z,8.14
2018-11-10T02:18:31.777Z,8.20
2018-11-10T02:18:32.376Z,8.18
2018-11-10T02:18:32.979Z,8.17
2018-11-10T02:18:33.577Z,8.17
2018-11-10T02:19:28.102Z,8.15
2018-11-10T02:19:28.681Z,8.12
2018-11-10T02:19:29.266Z,8.18
2018-11-10T02:19:29.853Z,8.12
2018-11-10T02:19:30.454Z,8.17
2018-11-10T02:19:31.054Z,8.15
2018-11-10T02:19:31.653Z,8.11
2018-11-10T02:19:32.252Z,8.17
2018-11-10T02:20:26.767Z,8.20
2018-11-10T02:20:27.329Z,8.20
2018-11-10T02:20:27.927Z,8.17
2018-11-10T02:20:28.529Z,8.11
2018-11-10T02:20:29.132Z,8.18
2018-11-10T02:20:29.727Z,8.20
2018-11-10T02:20:30.328Z,8.18
2018-11-10T02:20:30.928Z,8.15
2018-11-10T02:21:25.409Z,8.20
2018-11-10T02:21:26.006Z,8.18
2018-11-10T02:21:26.606Z,8.11
2018-11-10T02:21:27.203Z,8.25
2018-11-10T02:21:27.806Z,8.18
2018-11-10T02:21:28.406Z,8.15
2018-11-10T02:21:29.006Z,8.17
2018-11-10T02:21:29.603Z,8.14
2018-11-10T02:22:23.061Z,8.14
2018-11-10T02:22:23.658Z,8.17
2018-11-10T02:22:24.257Z,8.14
2018-11-10T02:22:24.859Z,8.15
2018-11-10T02:22:25.458Z,8.21
2018-11-10T02:22:26.058Z,8.18
2018-11-10T02:22:26.658Z,8.12
2018-11-10T02:22:27.257Z,8.20
2018-11-10T02:23:20.712Z,8.18
2018-11-10T02:23:21.310Z,8.15
2018-11-10T02:23:21.909Z,8.15
2018-11-10T02:23:22.511Z,8.21
2018-11-10T02:23:23.108Z,8.18
2018-11-10T02:23:23.709Z,8.17
2018-11-10T02:23:24.308Z,8.14
2018-11-10T02:23:24.909Z,8.22
2018-11-10T02:24:18.364Z,8.20
2018-11-10T02:24:18.960Z,8.20
2018-11-10T02:24:19.561Z,8.18
2018-11-10T02:24:20.161Z,8.20
2018-11-10T02:24:20.759Z,8.21
2018-11-10T02:24:21.362Z,8.18
2018-11-10T02:24:21.963Z,8.12
2018-11-10T02:24:22.559Z,8.17
2018-11-10T02:25:17.038Z,8.11
2018-11-10T02:25:17.636Z,8.15
2018-11-10T02:25:18.235Z,8.18
2018-11-10T02:25:18.835Z,8.15
2018-11-10T02:25:19.434Z,8.22
2018-11-10T02:25:20.036Z,8.20
2018-11-10T02:25:20.634Z,8.14
2018-11-10T02:25:21.267Z,8.17
2018-11-10T02:26:15.737Z,8.22
2018-11-10T02:26:16.318Z,8.21
2018-11-10T02:26:16.911Z,8.18
2018-11-10T02:26:17.511Z,8.14
2018-11-10T02:26:18.111Z,8.20
2018-11-10T02:26:18.712Z,8.20
2018-11-10T02:26:19.311Z,8.18
2018-11-10T02:26:19.913Z,8.26
2018-11-10T02:27:13.366Z,8.17
2018-11-10T02:27:13.965Z,8.21
2018-11-10T02:27:14.563Z,8.28
2018-11-10T02:27:15.164Z,8.26
2018-11-10T02:27:15.763Z,8.17
2018-11-10T02:27:16.364Z,8.22
2018-11-10T02:27:16.962Z,8.22
2018-11-10T02:27:17.563Z,8.22
2018-11-10T02:28:12.043Z,8.14
2018-11-10T02:28:12.639Z,8.21
2018-11-10T02:28:13.238Z,8.18
2018-11-10T02:28:13.839Z,8.20
2018-11-10T02:28:14.439Z,8.17
2018-11-10T02:28:15.038Z,8.18
2018-11-10T02:28:15.638Z,8.25
2018-11-10T02:28:16.242Z,8.25
2018-11-10T02:29:10.717Z,8.22
2018-11-10T02:29:11.314Z,8.28
2018-11-10T02:29:11.914Z,8.26
2018-11-10T02:29:12.514Z,8.22
2018-11-10T02:29:13.115Z,8.25
2018-11-10T02:29:13.716Z,8.22
2018-11-10T02:29:14.313Z,8.25
2018-11-10T02:29:14.913Z,8.26
2018-11-10T02:30:08.372Z,8.17
2018-11-10T02:30:08.967Z,8.25
2018-11-10T02:30:09.567Z,8.21
2018-11-10T02:30:10.165Z,8.20
2018-11-10T02:30:10.772Z,8.25
2018-11-10T02:30:11.368Z,8.21
2018-11-10T02:30:11.969Z,8.22
2018-11-10T02:30:12.571Z,8.21
2018-11-10T02:31:07.069Z,8.18
2018-11-10T02:31:07.647Z,8.21
2018-11-10T02:31:08.242Z,8.15
2018-11-10T02:31:08.854Z,8.22
2018-11-10T02:31:09.440Z,8.22
2018-11-10T02:31:10.047Z,8.18
2018-11-10T02:31:10.642Z,8.21
2018-11-10T02:31:11.240Z,8.20
2018-11-10T02:32:05.721Z,8.20
2018-11-10T02:32:06.320Z,8.21
2018-11-10T02:32:06.918Z,8.20
2018-11-10T02:32:07.517Z,8.12
2018-11-10T02:32:08.118Z,8.10
2018-11-10T02:32:08.718Z,8.21
2018-11-10T02:32:09.317Z,8.17
2018-11-10T02:32:09.917Z,8.22
2018-11-10T02:33:03.375Z,8.14
2018-11-10T02:33:03.970Z,8.18
2018-11-10T02:33:04.571Z,8.07
2018-11-10T02:33:05.170Z,8.15
2018-11-10T02:33:05.769Z,8.18
2018-11-10T02:33:06.369Z,8.17
2018-11-10T02:33:06.971Z,8.22
2018-11-10T02:33:07.569Z,8.14
2018-11-10T02:34:02.050Z,8.15
2018-11-10T02:34:02.650Z,8.07
2018-11-10T02:34:03.245Z,8.20
2018-11-10T02:34:03.845Z,8.15
2018-11-10T02:34:04.446Z,8.20
2018-11-10T02:34:05.046Z,8.14
2018-11-10T02:34:05.644Z,8.17
2018-11-10T02:34:06.244Z,8.12
2018-11-10T02:35:00.724Z,8.11
2018-11-10T02:35:01.322Z,8.14
2018-11-10T02:35:01.924Z,8.12
2018-11-10T02:35:02.523Z,8.22
2018-11-10T02:35:03.121Z,8.15
2018-11-10T02:35:03.720Z,8.12
2018-11-10T02:35:04.319Z,8.11
2018-11-10T02:35:04.929Z,8.14
2018-11-10T02:35:59.400Z,8.08
2018-11-10T02:35:59.996Z,8.10
2018-11-10T02:36:00.602Z,8.20
2018-11-10T02:36:01.196Z,8.12
2018-11-10T02:36:01.796Z,8.20
2018-11-10T02:36:02.397Z,8.08
2018-11-10T02:36:02.995Z,8.18
2018-11-10T02:36:03.594Z,8.15
2018-11-10T02:36:57.083Z,8.21
2018-11-10T02:36:57.649Z,8.17
2018-11-10T02:36:58.248Z,8.15
2018-11-10T02:36:58.848Z,8.17
2018-11-10T02:36:59.448Z,8.17
2018-11-10T02:37:00.050Z,8.14
2018-11-10T02:37:00.649Z,8.20
2018-11-10T02:37:01.248Z,8.15
2018-11-10T02:37:55.728Z,8.20
2018-11-10T02:37:56.324Z,8.17
2018-11-10T02:37:56.924Z,8.14
2018-11-10T02:37:57.522Z,8.20
2018-11-10T02:37:58.123Z,8.12
2018-11-10T02:37:58.722Z,8.12
2018-11-10T02:37:59.324Z,8.15
2018-11-10T02:37:59.924Z,8.15
2018-11-10T02:38:53.479Z,8.11
2018-11-10T02:38:54.095Z,8.14
2018-11-10T02:38:54.577Z,8.20
2018-11-10T02:38:55.184Z,8.12
2018-11-10T02:38:55.777Z,8.17
2018-11-10T02:38:56.378Z,8.20
2018-11-10T02:38:56.976Z,8.17
2018-11-10T02:38:57.576Z,8.18
2018-11-10T02:39:52.056Z,8.17
2018-11-10T02:39:52.652Z,8.14
2018-11-10T02:39:53.263Z,8.18
2018-11-10T02:39:53.855Z,8.21
2018-11-10T02:39:54.452Z,8.22
2018-11-10T02:39:55.051Z,8.20
2018-11-10T02:39:55.651Z,8.15
2018-11-10T02:39:56.251Z,8.15
2018-11-10T02:40:49.707Z,8.18
2018-11-10T02:40:50.308Z,8.12
2018-11-10T02:40:50.904Z,8.15
2018-11-10T02:40:51.504Z,8.17
2018-11-10T02:40:52.103Z,8.12
2018-11-10T02:40:52.703Z,8.18
2018-11-10T02:40:53.305Z,8.12
2018-11-10T02:40:53.902Z,8.15
2018-11-10T02:41:48.382Z,8.20
2018-11-10T02:41:48.981Z,8.18
2018-11-10T02:41:49.580Z,8.12
2018-11-10T02:41:50.177Z,8.18
2018-11-10T02:41:50.777Z,8.14
2018-11-10T02:41:51.379Z,8.21
2018-11-10T02:41:51.980Z,8.26
2018-11-10T02:41:52.580Z,8.20
2018-11-10T02:42:46.058Z,8.17
2018-11-10T02:42:46.632Z,8.18
2018-11-10T02:42:47.231Z,8.15
2018-11-10T02:42:47.833Z,8.20
2018-11-10T02:42:48.431Z,8.15
2018-11-10T02:42:49.031Z,8.17
2018-11-10T02:42:49.633Z,8.15
2018-11-10T02:42:50.233Z,8.18
2018-11-10T02:43:43.689Z,8.18
2018-11-10T02:43:44.282Z,8.15
2018-11-10T02:43:44.888Z,8.10
2018-11-10T02:43:45.485Z,8.20
2018-11-10T02:43:46.081Z,8.10
2018-11-10T02:43:46.682Z,8.17
2018-11-10T02:43:47.283Z,8.12
2018-11-10T02:43:47.882Z,8.15
2018-11-10T02:44:42.362Z,8.14
2018-11-10T02:44:42.958Z,8.17
2018-11-10T02:44:43.557Z,8.17
2018-11-10T02:44:44.157Z,8.17
2018-11-10T02:44:44.757Z,8.08
2018-11-10T02:44:45.360Z,8.14
2018-11-10T02:44:45.957Z,8.11
2018-11-10T02:44:46.558Z,8.17
2018-11-10T02:45:41.038Z,8.11
2018-11-10T02:45:41.635Z,8.15
2018-11-10T02:45:42.233Z,8.10
2018-11-10T02:45:42.834Z,8.21
2018-11-10T02:45:43.432Z,8.15
2018-11-10T02:45:44.034Z,8.14
2018-11-10T02:45:44.632Z,8.22
2018-11-10T02:45:45.234Z,8.18
2018-11-10T02:46:39.736Z,8.17
2018-11-10T02:46:40.310Z,8.22
2018-11-10T02:46:40.910Z,8.17
2018-11-10T02:46:41.508Z,8.20
2018-11-10T02:46:42.109Z,8.15
2018-11-10T02:46:42.710Z,8.18
2018-11-10T02:46:43.312Z,8.12
2018-11-10T02:46:43.906Z,8.17
2018-11-10T02:47:37.389Z,8.11
2018-11-10T02:47:37.962Z,8.28
2018-11-10T02:47:38.561Z,8.29
2018-11-10T02:47:39.164Z,8.22
2018-11-10T02:47:39.767Z,8.17
2018-11-10T02:47:40.361Z,8.21
2018-11-10T02:47:40.961Z,8.21
2018-11-10T02:47:41.563Z,8.20
2018-11-10T02:48:35.016Z,8.20
2018-11-10T02:48:35.614Z,8.21
2018-11-10T02:48:36.212Z,8.20
2018-11-10T02:48:36.813Z,8.25
2018-11-10T02:48:37.413Z,8.26
2018-11-10T02:48:38.013Z,8.22
2018-11-10T02:48:38.613Z,8.26
2018-11-10T02:48:39.213Z,8.17
2018-11-10T02:49:33.690Z,8.18
2018-11-10T02:49:34.291Z,8.22
2018-11-10T02:49:34.888Z,8.22
2018-11-10T02:49:35.488Z,8.22
2018-11-10T02:49:36.088Z,8.17
2018-11-10T02:49:36.688Z,8.18
2018-11-10T02:49:37.286Z,8.25
2018-11-10T02:49:37.888Z,8.22
2018-11-10T02:50:32.367Z,8.15
2018-11-10T02:50:32.964Z,8.26
2018-11-10T02:50:33.564Z,8.20
2018-11-10T02:50:34.164Z,8.28
2018-11-10T02:50:34.764Z,8.25
2018-11-10T02:50:35.363Z,8.25
2018-11-10T02:50:35.963Z,8.18
2018-11-10T02:50:36.564Z,8.15
2018-11-10T02:51:30.018Z,8.22
2018-11-10T02:51:30.617Z,8.18
2018-11-10T02:51:31.216Z,8.25
2018-11-10T02:51:31.816Z,8.21
2018-11-10T02:51:32.416Z,8.20
2018-11-10T02:51:33.017Z,8.18
2018-11-10T02:51:33.616Z,8.25
2018-11-10T02:51:34.218Z,8.21
2018-11-10T02:52:28.718Z,8.22
2018-11-10T02:52:29.295Z,8.21
2018-11-10T02:52:29.894Z,8.18
2018-11-10T02:52:30.516Z,8.22
2018-11-10T02:52:31.143Z,8.21
2018-11-10T02:52:31.698Z,8.26
2018-11-10T02:52:32.321Z,8.22
2018-11-10T02:52:32.949Z,8.21
2018-11-10T02:53:27.370Z,8.21
2018-11-10T02:53:27.966Z,8.21
2018-11-10T02:53:28.567Z,8.25
2018-11-10T02:53:29.166Z,8.22
2018-11-10T02:53:29.767Z,8.20
2018-11-10T02:53:30.367Z,8.25
2018-11-10T02:53:30.967Z,8.25
2018-11-10T02:53:31.567Z,8.25
2018-11-10T02:54:25.022Z,8.15
2018-11-10T02:54:25.622Z,8.18
2018-11-10T02:54:26.220Z,8.17
2018-11-10T02:54:26.820Z,8.18
2018-11-10T02:54:27.420Z,8.22
2018-11-10T02:54:28.026Z,8.22
2018-11-10T02:54:28.618Z,8.20
2018-11-10T02:54:29.218Z,8.22
2018-11-10T02:55:23.699Z,8.12
2018-11-10T02:55:24.295Z,8.18
2018-11-10T02:55:24.895Z,8.21
2018-11-10T02:55:25.496Z,8.20
2018-11-10T02:55:26.095Z,8.22
2018-11-10T02:55:26.695Z,8.20
2018-11-10T02:55:27.298Z,8.20
2018-11-10T02:55:27.896Z,8.21
2018-11-10T02:56:22.373Z,8.18
2018-11-10T02:56:22.973Z,8.15
2018-11-10T02:56:23.575Z,8.18
2018-11-10T02:56:24.170Z,8.18
2018-11-10T02:56:24.770Z,8.22
2018-11-10T02:56:25.371Z,8.17
2018-11-10T02:56:25.971Z,8.20
2018-11-10T02:56:26.570Z,8.18
2018-11-10T02:57:21.083Z,8.12
2018-11-10T02:57:21.646Z,8.21
2018-11-10T02:57:22.246Z,8.20
2018-11-10T02:57:22.847Z,8.21
2018-11-10T02:57:23.445Z,8.15
2018-11-10T02:57:24.044Z,8.15
2018-11-10T02:57:24.646Z,8.17
2018-11-10T02:57:25.247Z,8.17
2018-11-10T02:58:18.700Z,8.14
2018-11-10T02:58:19.300Z,8.15
2018-11-10T02:58:19.900Z,8.14
2018-11-10T02:58:20.499Z,8.20
2018-11-10T02:58:21.099Z,8.17
2018-11-10T02:58:21.701Z,8.21
2018-11-10T02:58:22.298Z,8.18
2018-11-10T02:58:22.898Z,8.21
2018-11-10T02:59:17.375Z,8.12
2018-11-10T02:59:17.975Z,8.17
2018-11-10T02:59:18.574Z,8.07
2018-11-10T02:59:19.174Z,8.10
2018-11-10T02:59:19.777Z,8.12
2018-11-10T02:59:20.375Z,8.14
2018-11-10T02:59:20.975Z,8.11
2018-11-10T02:59:21.573Z,8.11
2018-11-10T03:00:15.031Z,8.03
2018-11-10T03:00:15.626Z,8.07
2018-11-10T03:00:16.226Z,8.11
2018-11-10T03:00:16.828Z,8.04
2018-11-10T03:00:17.424Z,8.10
2018-11-10T03:00:18.023Z,8.12
2018-11-10T03:00:18.623Z,8.10
2018-11-10T03:00:19.227Z,8.12
2018-11-10T03:01:13.705Z,8.14
2018-11-10T03:01:14.300Z,8.15
2018-11-10T03:01:14.902Z,8.15
2018-11-10T03:01:15.500Z,8.17
2018-11-10T03:01:16.100Z,8.10
2018-11-10T03:01:16.703Z,8.11
2018-11-10T03:01:17.301Z,8.04
2018-11-10T03:01:17.901Z,8.12
2018-11-10T03:02:11.366Z,8.08
2018-11-10T03:02:11.954Z,8.11
2018-11-10T03:02:12.554Z,8.10
2018-11-10T03:02:13.152Z,8.00
2018-11-10T03:02:13.752Z,8.00
2018-11-10T03:02:14.353Z,7.99
2018-11-10T03:02:14.955Z,8.04
2018-11-10T03:02:15.552Z,8.00
2018-11-10T03:03:09.033Z,8.04
2018-11-10T03:03:09.605Z,8.11
2018-11-10T03:03:10.207Z,8.12
2018-11-10T03:03:10.805Z,8.15
2018-11-10T03:03:11.404Z,8.14
2018-11-10T03:03:12.005Z,8.14
2018-11-10T03:03:12.603Z,8.08
2018-11-10T03:03:13.236Z,8.07
2018-11-10T03:04:07.682Z,8.00
2018-11-10T03:04:08.281Z,8.00
2018-11-10T03:04:08.880Z,8.11
2018-11-10T03:04:09.480Z,8.02
2018-11-10T03:04:10.080Z,8.10
2018-11-10T03:04:10.681Z,8.11
2018-11-10T03:04:11.279Z,8.15
2018-11-10T03:04:11.879Z,8.11
2018-11-10T03:05:06.359Z,8.11
2018-11-10T03:05:06.955Z,8.11
2018-11-10T03:05:07.555Z,8.11
2018-11-10T03:05:08.156Z,8.12
2018-11-10T03:05:08.756Z,8.11
2018-11-10T03:05:09.359Z,8.14
2018-11-10T03:05:09.958Z,8.12
2018-11-10T03:05:10.555Z,8.14
2018-11-10T03:06:04.010Z,8.11
2018-11-10T03:06:04.608Z,8.00
2018-11-10T03:06:05.208Z,8.12
2018-11-10T03:06:05.808Z,8.11
2018-11-10T03:06:06.408Z,8.11
2018-11-10T03:06:07.007Z,8.12
2018-11-10T03:06:07.609Z,8.14